Terminal Aerodrome Forecast
Issued by NWS Wichita, KS

Home | Current Version | Previous Version | Text Only | Print | Product List | Glossary On
Versions: 1 2 3 4 5 6 7 8 9 10 11 12 13 14 15 16 17 18 19
000
FTUS43 KICT 271236 AAA
TAFICT
TAF AMD
KICT 271236Z 2713/2812 02009KT P6SM VCSH SCT007 BKN080
      TEMPO 2713/2715 SCT004 BKN007
     FM271500 02012KT P6SM SCT009 BKN015
     FM271700 02012KT P6SM BKN035=

USA.gov is the U.S. government's official web portal to all federal, state and local government web resources and services.